Terminal Aerodrome Forecast
Issued by NWS

Home | Current Version | Previous Version | Text Only | Print | Product List | Glossary On
Versions: 1 2 3 4 5 6 7 8 9 10 11 12 13 14 15 16 17 18 19
000
FTUS41 KPHI 281700
TAFPNE
TAF
KPNE 281727Z 2818/2918 31010G18KT P6SM BKN050
     FM282200 31006KT P6SM FEW050 BKN200
     FM290800 00000KT P6SM BKN080 BKN150
     FM291200 16005KT P6SM BKN050 OVC080=

USA.gov is the U.S. government's official web portal to all federal, state and local government web resources and services.